Time,TemperatureF,DewpointF,PressureIn,WindDirection,WindDirectionDegrees,WindSpeedMPH,WindSpeedGustMPH,Humidity,HourlyPrecipIn,Conditions,Clouds,dailyrainin,SolarRadiationWatts/m^2,SoftwareType,DateUTC
2013-03-01 00:02:00,31.0,24.0,-100.00,NW,320,5.0,12.0,76,0.00,,,0.00,0.000000,,2013-03-01 06:02:00,
2013-03-01 00:32:00,31.0,25.0,-100.00,NNW,327,3.0,11.0,78,0.00,,,0.00,0.000000,,2013-03-01 06:32:00,
2013-03-01 00:42:00,31.0,25.0,-100.00,NNW,327,3.0,11.0,78,0.00,,,0.00,0.000000,,2013-03-01 06:42:00,
2013-03-01 00:53:00,31.0,25.0,-100.00,NNW,327,3.0,11.0,78,0.00,,,0.00,0.000000,,2013-03-01 06:53:00,
2013-03-01 01:02:00,31.0,25.0,-100.00,NNW,327,3.0,11.0,78,0.00,,,0.00,0.000000,,2013-03-01 07:02:00,
2013-03-01 01:33:00,31.0,25.0,-100.00,NW,320,1.0,8.0,79,0.00,,,0.00,0.000000,,2013-03-01 07:33:00,
2013-03-01 01:42:00,31.0,25.0,-100.00,NW,320,1.0,8.0,79,0.00,,,0.00,0.000000,,2013-03-01 07:42:00,
2013-03-01 01:52:00,31.0,25.0,-100.00,NW,320,1.0,8.0,79,0.00,,,0.00,0.000000,,2013-03-01 07:52:00,
2013-03-01 02:02:00,31.0,25.0,-100.00,NW,320,1.0,8.0,79,0.00,,,0.00,0.000000,,2013-03-01 08:02:00,
2013-03-01 02:33:00,30.0,25.0,-100.00,NW,306,0.0,8.0,81,0.00,,,0.00,0.000000,,2013-03-01 08:33:00,
2013-03-01 02:43:00,30.0,25.0,-100.00,NW,306,0.0,8.0,81,0.00,,,0.00,0.000000,,2013-03-01 08:43:00,
2013-03-01 02:53:00,30.0,25.0,-100.00,NW,306,0.0,8.0,81,0.00,,,0.00,0.000000,,2013-03-01 08:53:00,
2013-03-01 03:02:00,30.0,25.0,-100.00,NW,306,0.0,8.0,81,0.00,,,0.00,0.000000,,2013-03-01 09:02:00,
2013-03-01 03:32:00,30.0,26.0,-100.00,NW,304,0.0,7.0,84,0.00,,,0.00,0.000000,,2013-03-01 09:32:00,
2013-03-01 03:42:00,30.0,26.0,-100.00,NW,304,0.0,7.0,84,0.00,,,0.00,0.000000,,2013-03-01 09:42:00,
2013-03-01 03:53:00,30.0,26.0,-100.00,NW,304,0.0,7.0,84,0.00,,,0.00,0.000000,,2013-03-01 09:53:00,
2013-03-01 04:02:00,30.0,26.0,-100.00,NW,304,0.0,7.0,84,0.00,,,0.00,0.000000,,2013-03-01 10:02:00,
2013-03-01 04:32:00,30.0,26.0,-100.00,WNW,296,0.0,8.0,85,0.00,,,0.00,0.000000,,2013-03-01 10:32:00,
2013-03-01 04:42:00,30.0,26.0,-100.00,WNW,296,0.0,8.0,85,0.00,,,0.00,0.000000,,2013-03-01 10:42:00,
2013-03-01 04:53:00,30.0,26.0,-100.00,WNW,296,0.0,8.0,85,0.00,,,0.00,0.000000,,2013-03-01 10:53:00,
2013-03-01 05:02:00,30.0,26.0,-100.00,WNW,296,0.0,8.0,85,0.00,,,0.00,0.000000,,2013-03-01 11:02:00,
2013-03-01 05:32:00,30.0,27.0,-100.00,WNW,303,0.0,7.0,87,0.00,,,0.00,0.000000,,2013-03-01 11:32:00,
2013-03-01 05:42:00,30.0,27.0,-100.00,WNW,303,0.0,7.0,87,0.00,,,0.00,0.000000,,2013-03-01 11:42:00,
2013-03-01 05:53:00,30.0,27.0,-100.00,WNW,303,0.0,7.0,87,0.00,,,0.00,0.000000,,2013-03-01 11:53:00,
2013-03-01 06:02:00,30.0,27.0,-100.00,WNW,303,0.0,7.0,87,0.00,,,0.00,0.000000,,2013-03-01 12:02:00,
2013-03-01 06:33:00,30.0,27.0,-100.00,WNW,300,1.0,8.0,90,0.00,,,0.00,0.000000,,2013-03-01 12:33:00,
2013-03-01 06:42:00,30.0,27.0,-100.00,WNW,300,1.0,8.0,90,0.00,,,0.00,0.000000,,2013-03-01 12:42:00,
2013-03-01 06:52:00,30.0,27.0,-100.00,WNW,300,1.0,8.0,90,0.00,,,0.00,0.000000,,2013-03-01 12:52:00,
2013-03-01 07:01:00,30.0,27.0,-100.00,WNW,300,1.0,8.0,90,0.00,,,0.00,0.000000,,2013-03-01 13:01:00,
2013-03-01 07:32:00,30.0,28.0,-100.00,WNW,283,1.0,7.0,91,0.00,,,0.00,5.000000,,2013-03-01 13:32:00,
2013-03-01 07:42:00,30.0,28.0,-100.00,WNW,283,1.0,7.0,91,0.00,,,0.00,5.000000,,2013-03-01 13:42:00,
2013-03-01 07:52:00,30.0,28.0,-100.00,WNW,283,1.0,7.0,91,0.00,,,0.00,5.000000,,2013-03-01 13:52:00,
2013-03-01 08:02:00,30.0,28.0,-100.00,WNW,283,1.0,7.0,91,0.00,,,0.00,5.000000,,2013-03-01 14:02:00,
2013-03-01 08:32:00,31.0,29.0,-100.00,West,264,1.0,7.0,91,0.00,,,0.00,26.000000,,2013-03-01 14:32:00,
2013-03-01 08:42:00,31.0,29.0,-100.00,West,264,1.0,7.0,91,0.00,,,0.00,26.000000,,2013-03-01 14:42:00,
2013-03-01 08:52:00,31.0,29.0,-100.00,West,264,1.0,7.0,91,0.00,,,0.00,26.000000,,2013-03-01 14:52:00,
2013-03-01 09:02:00,31.0,29.0,-100.00,West,264,1.0,7.0,91,0.00,,,0.00,26.000000,,2013-03-01 15:02:00,
2013-03-01 09:32:00,31.0,29.0,-100.00,West,273,4.0,13.0,91,0.00,,,0.00,42.000000,,2013-03-01 15:32:00,
2013-03-01 09:42:00,31.0,29.0,-100.00,West,273,4.0,13.0,91,0.00,,,0.00,42.000000,,2013-03-01 15:42:00,
2013-03-01 09:52:00,31.0,29.0,-100.00,West,273,4.0,13.0,91,0.00,,,0.00,42.000000,,2013-03-01 15:52:00,
2013-03-01 10:01:00,31.0,29.0,-100.00,West,273,4.0,13.0,91,0.00,,,0.00,42.000000,,2013-03-01 16:01:00,
2013-03-01 10:32:00,32.0,29.0,-100.00,NW,315,1.0,13.0,88,0.00,,,0.00,74.000000,,2013-03-01 16:32:00,
2013-03-01 10:42:00,32.0,29.0,-100.00,NW,315,1.0,13.0,88,0.00,,,0.00,74.000000,,2013-03-01 16:42:00,
2013-03-01 10:52:00,32.0,29.0,-100.00,NW,315,1.0,13.0,88,0.00,,,0.00,74.000000,,2013-03-01 16:52:00,
2013-03-01 11:01:00,32.0,29.0,-100.00,NW,315,1.0,13.0,88,0.00,,,0.00,74.000000,,2013-03-01 17:01:00,
2013-03-01 11:32:00,35.0,29.0,-100.00,NW,314,3.0,11.0,77,0.00,,,0.00,187.000000,,2013-03-01 17:32:00,
2013-03-01 11:42:00,35.0,29.0,-100.00,NW,314,3.0,11.0,77,0.00,,,0.00,187.000000,,2013-03-01 17:42:00,
2013-03-01 11:52:00,35.0,29.0,-100.00,NW,314,3.0,11.0,77,0.00,,,0.00,187.000000,,2013-03-01 17:52:00,
2013-03-01 12:02:00,35.0,29.0,-100.00,NW,314,3.0,11.0,77,0.00,,,0.00,187.000000,,2013-03-01 18:02:00,
2013-03-01 12:32:00,34.0,27.0,-100.00,NW,312,2.0,10.0,76,0.00,,,0.00,179.000000,,2013-03-01 18:32:00,
2013-03-01 12:42:00,34.0,27.0,-100.00,NW,312,2.0,10.0,76,0.00,,,0.00,179.000000,,2013-03-01 18:42:00,
2013-03-01 12:52:00,34.0,27.0,-100.00,NW,312,2.0,10.0,76,0.00,,,0.00,179.000000,,2013-03-01 18:52:00,
2013-03-01 13:02:00,34.0,27.0,-100.00,NW,312,2.0,10.0,76,0.00,,,0.00,179.000000,,2013-03-01 19:02:00,
2013-03-01 13:32:00,33.0,27.0,-100.00,WNW,289,2.0,15.0,77,0.00,,,0.00,66.000000,,2013-03-01 19:32:00,
2013-03-01 13:42:00,33.0,27.0,-100.00,WNW,289,2.0,15.0,77,0.00,,,0.00,66.000000,,2013-03-01 19:42:00,
2013-03-01 13:52:00,33.0,27.0,-100.00,WNW,289,2.0,15.0,77,0.00,,,0.00,66.000000,,2013-03-01 19:52:00,
2013-03-01 14:01:00,33.0,27.0,-100.00,WNW,289,2.0,15.0,77,0.00,,,0.00,66.000000,,2013-03-01 20:01:00,
2013-03-01 14:32:00,33.0,27.0,-100.00,NW,323,3.0,12.0,79,0.00,,,0.00,51.000000,,2013-03-01 20:32:00,
2013-03-01 14:42:00,33.0,27.0,-100.00,NW,323,3.0,12.0,79,0.00,,,0.00,51.000000,,2013-03-01 20:42:00,
2013-03-01 14:52:00,33.0,27.0,-100.00,NW,323,3.0,12.0,79,0.00,,,0.00,51.000000,,2013-03-01 20:52:00,
2013-03-01 15:02:00,33.0,27.0,-100.00,NW,323,3.0,12.0,79,0.00,,,0.00,51.000000,,2013-03-01 21:02:00,
2013-03-01 15:32:00,33.0,28.0,-100.00,NW,322,1.0,9.0,82,0.00,,,0.00,37.000000,,2013-03-01 21:32:00,
2013-03-01 15:42:00,33.0,28.0,-100.00,NW,322,1.0,9.0,82,0.00,,,0.00,37.000000,,2013-03-01 21:42:00,
2013-03-01 15:52:00,33.0,28.0,-100.00,NW,322,1.0,9.0,82,0.00,,,0.00,37.000000,,2013-03-01 21:52:00,
2013-03-01 16:01:00,33.0,28.0,-100.00,NW,322,1.0,9.0,82,0.00,,,0.00,37.000000,,2013-03-01 22:01:00,
2013-03-01 16:32:00,32.0,27.0,-100.00,NW,315,2.0,12.0,83,0.00,,,0.00,26.000000,,2013-03-01 22:32:00,
2013-03-01 16:42:00,32.0,27.0,-100.00,NW,315,2.0,12.0,83,0.00,,,0.00,26.000000,,2013-03-01 22:42:00,
2013-03-01 16:52:00,32.0,27.0,-100.00,NW,315,2.0,12.0,83,0.00,,,0.00,26.000000,,2013-03-01 22:52:00,
2013-03-01 17:01:00,32.0,27.0,-100.00,NW,315,2.0,12.0,83,0.00,,,0.00,26.000000,,2013-03-01 23:01:00,
2013-03-01 17:32:00,32.0,27.0,-100.00,WNW,301,1.0,9.0,83,0.00,,,0.00,14.000000,,2013-03-01 23:32:00,
2013-03-01 17:42:00,32.0,27.0,-100.00,WNW,301,1.0,9.0,83,0.00,,,0.00,14.000000,,2013-03-01 23:42:00,
2013-03-01 17:52:00,32.0,27.0,-100.00,WNW,301,1.0,9.0,83,0.00,,,0.00,14.000000,,2013-03-01 23:52:00,
2013-03-01 18:02:00,32.0,27.0,-100.00,WNW,301,1.0,9.0,83,0.00,,,0.00,14.000000,,2013-03-02 00:02:00,
2013-03-01 18:32:00,32.0,28.0,-100.00,NW,319,1.0,9.0,86,0.00,,,0.00,1.000000,,2013-03-02 00:32:00,
2013-03-01 18:42:00,32.0,28.0,-100.00,NW,319,1.0,9.0,86,0.00,,,0.00,1.000000,,2013-03-02 00:42:00,
2013-03-01 18:52:00,32.0,28.0,-100.00,NW,319,1.0,9.0,86,0.00,,,0.00,1.000000,,2013-03-02 00:52:00,
2013-03-01 19:01:00,32.0,28.0,-100.00,NW,319,1.0,9.0,86,0.00,,,0.00,1.000000,,2013-03-02 01:01:00,
2013-03-01 19:32:00,31.0,29.0,-100.00,NW,305,2.0,8.0,91,0.00,,,0.00,0.000000,,2013-03-02 01:32:00,
2013-03-01 19:42:00,31.0,29.0,-100.00,NW,305,2.0,8.0,91,0.00,,,0.00,0.000000,,2013-03-02 01:42:00,
2013-03-01 19:52:00,31.0,29.0,-100.00,NW,305,2.0,8.0,91,0.00,,,0.00,0.000000,,2013-03-02 01:52:00,
2013-03-01 20:01:00,31.0,29.0,-100.00,NW,305,2.0,8.0,91,0.00,,,0.00,0.000000,,2013-03-02 02:01:00,
2013-03-01 20:32:00,30.0,29.0,-100.00,WNW,297,3.0,10.0,98,0.00,,,0.00,0.000000,,2013-03-02 02:32:00,
2013-03-01 20:42:00,30.0,29.0,-100.00,WNW,297,3.0,10.0,98,0.00,,,0.00,0.000000,,2013-03-02 02:42:00,
2013-03-01 20:52:00,30.0,29.0,-100.00,WNW,297,3.0,10.0,98,0.00,,,0.00,0.000000,,2013-03-02 02:52:00,
2013-03-01 21:02:00,30.0,29.0,-100.00,WNW,297,3.0,10.0,98,0.00,,,0.00,0.000000,,2013-03-02 03:02:00,
2013-03-01 21:32:00,30.0,30.0,-100.00,NW,307,2.0,9.0,100,0.00,,,0.00,0.000000,,2013-03-02 03:32:00,
2013-03-01 21:42:00,30.0,30.0,-100.00,NW,307,2.0,9.0,100,0.00,,,0.00,0.000000,,2013-03-02 03:42:00,
2013-03-01 21:53:00,30.0,30.0,-100.00,NW,307,2.0,9.0,100,0.00,,,0.00,0.000000,,2013-03-02 03:53:00,
2013-03-01 22:02:00,30.0,30.0,-100.00,NW,307,2.0,9.0,100,0.00,,,0.00,0.000000,,2013-03-02 04:02:00,
2013-03-01 22:32:00,29.0,29.0,-100.00,NW,314,4.0,10.0,100,0.00,,,0.00,0.000000,,2013-03-02 04:32:00,
2013-03-01 22:42:00,29.0,29.0,-100.00,NW,314,4.0,10.0,100,0.00,,,0.00,0.000000,,2013-03-02 04:42:00,
2013-03-01 22:52:00,29.0,29.0,-100.00,NW,314,4.0,10.0,100,0.00,,,0.00,0.000000,,2013-03-02 04:52:00,
2013-03-01 23:02:00,29.0,29.0,-100.00,NW,314,4.0,10.0,100,0.00,,,0.00,0.000000,,2013-03-02 05:02:00,
2013-03-01 23:32:00,29.0,29.0,-100.00,NW,306,4.0,10.0,100,0.00,,,0.00,0.000000,,2013-03-02 05:32:00,
2013-03-01 23:42:00,29.0,29.0,-100.00,NW,306,4.0,10.0,100,0.00,,,0.00,0.000000,,2013-03-02 05:42:00,
2013-03-01 23:52:00,29.0,29.0,-100.00,NW,306,4.0,10.0,100,0.00,,,0.00,0.000000,,2013-03-02 05:52:00,